PWSweather.com
Personal Weather Stations
Station Observations
DW7240
Park & Bond, Oshawa, ON L1J 4K8

Park & BondOshawa, ON L1J 4K8

Lat: 43.89689, Lon: -78.87396

Elevation: 358

Station Type: DAVIS VANTAGE PRO2 inc FARS

http://dw7240.com

Latest ConditionsUpdated 5:45:00 AM EST Sunday, Jan 21, 2018
Currently Today's Max Today's Min Today's Average
Temperature 29.9°F-1.2°C 33.1°F0.6°C 29.9°F-1.2°C 31.4°F-0.3°C
Dew Point 27.3°F-2.6°C 29.7°F-1.3°C 27.3°F-2.6°C 28.5°F-1.9°C
Winds Calm Calm Calm Calm - Calm Calm
Wind Gusts -- 3.0 mph4.8 kmh - -
Humidity 90% 90% 87% 89%
Pressure 30.08 in1018.6 mb 30.08 in1018.6 mb 30.02 in1016.6 mb -
Hour Temp Dew Point Humidity Winds Wind Gusts Pressure Precip Precip Rate Daily Precip Total
05:45 AM 29.9°F-1.2°C 27.3°F-2.6°C 90% Calm Calm -- 30.08 in1018.6 mb 0.00 in0.0 mm 0.00 in0.0 mm 0.00 in0.0 mm
05:30 AM 30.4°F-0.9°C 27.8°F-2.3°C 90% Calm Calm -- 30.08 in1018.6 mb 0.00 in0.0 mm 0.00 in0.0 mm 0.00 in0.0 mm
05:15 AM 30.6°F-0.8°C 28.0°F-2.2°C 90% Calm Calm -- 30.08 in1018.6 mb 0.00 in0.0 mm 0.00 in0.0 mm 0.00 in0.0 mm
05:00 AM 30.4°F-0.9°C 27.8°F-2.3°C 90% Calm Calm -- 30.07 in1018.3 mb 0.00 in0.0 mm 0.00 in0.0 mm 0.00 in0.0 mm
04:45 AM 30.6°F-0.8°C 27.7°F-2.4°C 89% Calm Calm -- 30.07 in1018.3 mb 0.00 in0.0 mm 0.00 in0.0 mm 0.00 in0.0 mm
04:30 AM 30.9°F-0.6°C 28.3°F-2.1°C 90% Calm Calm -- 30.07 in1018.3 mb 0.00 in0.0 mm 0.00 in0.0 mm 0.00 in0.0 mm
04:15 AM 31.1°F-0.5°C 28.2°F-2.1°C 89% Calm Calm -- 30.06 in1017.9 mb 0.00 in0.0 mm 0.00 in0.0 mm 0.00 in0.0 mm
04:00 AM 31.0°F-0.6°C 28.4°F-2.0°C 90% Calm Calm -- 30.06 in1017.9 mb 0.00 in0.0 mm 0.00 in0.0 mm 0.00 in0.0 mm
03:45 AM 31.4°F-0.3°C 28.5°F-1.9°C 89% Calm Calm -- 30.06 in1017.9 mb 0.00 in0.0 mm 0.00 in0.0 mm 0.00 in0.0 mm
03:30 AM 31.4°F-0.3°C 28.5°F-1.9°C 89% Calm Calm -- 30.06 in1017.9 mb 0.00 in0.0 mm 0.00 in0.0 mm 0.00 in0.0 mm
03:15 AM 31.4°F-0.3°C 28.5°F-1.9°C 89% Calm Calm -- 30.06 in1017.9 mb 0.00 in0.0 mm 0.00 in0.0 mm 0.00 in0.0 mm
03:00 AM 31.3°F-0.4°C 28.4°F-2.0°C 89% Calm Calm -- 30.06 in1017.9 mb 0.00 in0.0 mm 0.00 in0.0 mm 0.00 in0.0 mm
02:45 AM 31.0°F-0.6°C 28.1°F-2.2°C 89% Calm Calm -- 30.05 in1017.6 mb 0.00 in0.0 mm 0.00 in0.0 mm 0.00 in0.0 mm
02:30 AM 31.0°F-0.6°C 28.1°F-2.2°C 89% Calm Calm -- 30.05 in1017.6 mb 0.00 in0.0 mm 0.00 in0.0 mm 0.00 in0.0 mm
02:15 AM 31.9°F-0.1°C 29.0°F-1.7°C 89% Calm Calm -- 30.04 in1017.3 mb 0.00 in0.0 mm 0.00 in0.0 mm 0.00 in0.0 mm
02:00 AM 31.6°F-0.2°C 28.7°F-1.8°C 89% Calm Calm -- 30.03 in1016.9 mb 0.00 in0.0 mm 0.00 in0.0 mm 0.00 in0.0 mm
01:45 AM 31.8°F-0.1°C 28.9°F-1.7°C 89% Calm Calm -- 30.03 in1016.9 mb 0.00 in0.0 mm 0.00 in0.0 mm 0.00 in0.0 mm
01:30 AM 31.4°F-0.3°C 28.5°F-1.9°C 89% Calm Calm -- 30.02 in1016.6 mb 0.00 in0.0 mm 0.00 in0.0 mm 0.00 in0.0 mm
01:15 AM 31.8°F-0.1°C 28.7°F-1.8°C 88% Calm Calm -- 30.02 in1016.6 mb 0.00 in0.0 mm 0.00 in0.0 mm 0.00 in0.0 mm
01:00 AM 32.2°F0.1°C 29.0°F-1.7°C 88% Calm Calm -- 30.02 in1016.6 mb 0.00 in0.0 mm 0.00 in0.0 mm 0.00 in0.0 mm
12:45 AM 32.5°F0.3°C 29.3°F-1.5°C 88% Calm Calm -- 30.03 in1016.9 mb 0.00 in0.0 mm 0.00 in0.0 mm 0.00 in0.0 mm
12:30 AM 32.6°F0.3°C 29.4°F-1.4°C 88% Calm Calm 3.0 mph4.8 kmh 30.03 in1016.9 mb 0.00 in0.0 mm 0.00 in0.0 mm 0.00 in0.0 mm
12:15 AM 32.7°F0.4°C 29.5°F-1.4°C 88% Calm Calm -- 30.03 in1016.9 mb 0.00 in0.0 mm 0.00 in0.0 mm 0.00 in0.0 mm
12:00 AM 33.1°F0.6°C 29.7°F-1.3°C 87% Calm Calm -- 30.03 in1016.9 mb 0.00 in0.0 mm 0.00 in0.0 mm 0.00 in0.0 mm